Time;durP1;ratioP1;P1;durP2;ratioP2;P2;SDS_P1;SDS_P2;PMS_P1;PMS_P2;Temp;Humidity;BMP_temperature;BMP_pressure;BME280_temperature;BME280_humidity;BME280_pressure;Samples;Min_cycle;Max_cycle;Signal;HPM_P1;HPM_P2
2022/10/17 00:00:21;;;;;;;4.77;2.57;;;11.50;63.50;;;;;;4975639;28;46354;-83
2022/10/17 00:02:47;;;;;;;7.80;3.37;;;11.50;63.50;;;;;;4993613;28;46674;-84
2022/10/17 00:05:12;;;;;;;6.30;3.30;;;11.50;63.50;;;;;;4969601;28;46297;-84
2022/10/17 00:07:38;;;;;;;5.50;2.77;;;11.40;63.40;;;;;;4970644;28;48110;-83
2022/10/17 00:10:07;;;;;;;8.77;2.60;;;11.50;64.00;;;;;;4970797;28;46351;-84
2022/10/17 00:12:34;;;;;;;4.07;2.70;;;11.50;63.60;;;;;;4971879;28;46670;-83
2022/10/17 00:15:01;;;;;;;5.87;2.87;;;11.50;63.70;;;;;;4968385;28;46630;-84
2022/10/17 00:17:26;;;;;;;4.60;2.83;;;11.50;63.80;;;;;;4984954;28;46824;-84
2022/10/17 00:19:52;;;;;;;12.10;3.87;;;11.60;64.00;;;;;;4971011;28;48807;-84
2022/10/17 00:22:17;;;;;;;4.97;3.57;;;11.50;64.10;;;;;;4973505;28;46513;-84
2022/10/17 00:24:43;;;;;;;4.80;2.87;;;11.50;64.10;;;;;;4970216;28;46525;-85
2022/10/17 00:27:08;;;;;;;5.90;2.97;;;11.50;64.00;;;;;;4969100;28;49275;-84
2022/10/17 00:29:34;;;;;;;4.77;3.33;;;11.50;64.10;;;;;;4989559;28;48520;-84
2022/10/17 00:31:59;;;;;;;10.90;3.20;;;11.50;64.20;;;;;;4970022;28;46511;-84
2022/10/17 00:34:27;;;;;;;5.33;2.47;;;11.50;64.40;;;;;;4971646;28;45919;-84
2022/10/17 00:36:53;;;;;;;6.50;2.40;;;11.40;64.70;;;;;;4986826;28;46598;-84
2022/10/17 00:39:19;;;;;;;14.13;2.60;;;11.30;64.70;;;;;;4986784;28;49090;-84
2022/10/17 00:41:45;;;;;;;4.97;2.60;;;11.30;64.80;;;;;;4967553;28;46491;-85
2022/10/17 00:44:29;;;;;;;7.90;2.20;;;11.20;65.10;;;;;;4965200;28;46665;-85
2022/10/17 00:47:04;;;;;;;5.43;2.67;;;11.00;65.40;;;;;;4982375;28;46794;-84
2022/10/17 00:49:34;;;;;;;7.07;2.50;;;11.00;65.30;;;;;;4984163;28;46482;-85
2022/10/17 00:52:03;;;;;;;9.93;3.10;;;10.90;65.30;;;;;;4986374;28;46349;-84
2022/10/17 00:54:35;;;;;;;6.50;2.60;;;10.90;65.20;;;;;;4968598;28;46540;-84
2022/10/17 00:57:01;;;;;;;9.90;3.20;;;10.90;65.20;;;;;;4969290;28;48460;-83
2022/10/17 00:59:28;;;;;;;4.40;2.23;;;10.90;65.20;;;;;;4985731;28;46367;-83
2022/10/17 01:02:02;;;;;;;6.03;2.00;;;10.70;65.10;;;;;;4983829;28;45918;-84
2022/10/17 01:04:27;;;;;;;5.60;2.57;;;10.60;65.60;;;;;;4963163;28;46618;-85
2022/10/17 01:06:53;;;;;;;7.90;2.63;;;10.60;65.70;;;;;;4973050;28;47938;-86
2022/10/17 01:09:19;;;;;;;7.33;2.63;;;10.50;65.60;;;;;;4974033;28;46369;-85
2022/10/17 01:11:49;;;;;;;4.70;2.60;;;10.60;65.50;;;;;;4989232;28;46358;-85
2022/10/17 01:14:42;;;;;;;5.00;2.60;;;10.60;65.30;;;;;;4970878;28;46666;-86
2022/10/17 01:17:23;;;;;;;3.80;2.63;;;10.60;65.30;;;;;;4964726;28;48403;-86
2022/10/17 01:19:48;;;;;;;8.63;2.80;;;10.60;65.20;;;;;;4987075;28;46815;-85
2022/10/17 01:22:30;;;;;;;6.33;2.90;;;10.60;65.00;;;;;;4986766;28;46473;-85
2022/10/17 01:25:17;;;;;;;8.63;2.93;;;10.40;65.20;;;;;;4989636;28;45910;-86
2022/10/17 01:28:17;;;;;;;6.80;2.93;;;10.80;64.80;;;;;;4988071;28;46879;-85
2022/10/17 01:30:55;;;;;;;4.47;2.50;;;10.60;65.60;;;;;;4973579;28;46358;-85
2022/10/17 01:33:44;;;;;;;4.50;2.70;;;10.60;65.30;;;;;;4989574;28;45841;-86
2022/10/17 01:36:15;;;;;;;5.40;2.40;;;10.50;65.30;;;;;;4971450;28;46037;-84
2022/10/17 01:38:57;;;;;;;6.30;2.60;;;10.50;66.40;;;;;;4970311;28;48282;-85
2022/10/17 01:41:41;;;;;;;9.20;2.67;;;10.50;65.30;;;;;;4966223;28;46397;-86
2022/10/17 01:44:21;;;;;;;8.63;3.10;;;10.50;65.50;;;;;;4989747;28;46701;-86
2022/10/17 01:46:50;;;;;;;6.87;3.10;;;10.50;65.30;;;;;;4968868;28;46445;-84
2022/10/17 01:49:19;;;;;;;5.80;2.50;;;10.50;65.50;;;;;;4969771;28;49240;-86
2022/10/17 01:51:59;;;;;;;6.63;2.70;;;10.50;65.70;;;;;;4985997;28;46393;-84
2022/10/17 01:54:36;;;;;;;7.70;3.67;;;10.40;65.80;;;;;;4990794;28;46065;-86
2022/10/17 01:57:07;;;;;;;6.20;2.90;;;10.40;65.20;;;;;;4987443;28;45801;-85
2022/10/17 01:59:39;;;;;;;15.93;3.23;;;10.40;66.20;;;;;;4987858;28;47873;-85
2022/10/17 02:02:08;;;;;;;7.90;2.90;;;10.40;66.20;;;;;;4988938;28;46465;-86
2022/10/17 02:04:34;;;;;;;8.63;2.63;;;10.40;66.20;;;;;;4969507;28;46394;-85
2022/10/17 02:07:08;;;;;;;6.20;3.27;;;10.40;66.10;;;;;;4987345;28;46443;-86
2022/10/17 02:09:34;;;;;;;6.20;3.53;;;10.50;66.30;;;;;;4988333;28;46462;-85
2022/10/17 02:12:29;;;;;;;5.50;3.23;;;10.50;66.40;;;;;;4965262;28;45871;-85
2022/10/17 02:15:10;;;;;;;10.63;3.50;;;10.50;66.50;;;;;;4982152;28;46568;-85
2022/10/17 02:18:02;;;;;;;7.13;3.10;;;10.50;66.50;;;;;;4987146;28;46441;-85
2022/10/17 02:20:36;;;;;;;9.37;2.90;;;10.50;66.60;;;;;;4968925;28;49500;-85
2022/10/17 02:23:19;;;;;;;7.77;3.30;;;10.40;66.60;;;;;;4987117;28;45764;-85
2022/10/17 02:25:52;;;;;;;6.80;3.10;;;10.50;66.60;;;;;;4967237;28;46466;-84
2022/10/17 02:28:34;;;;;;;4.77;3.13;;;10.50;65.70;;;;;;4984438;28;46533;-85
2022/10/17 02:31:21;;;;;;;8.37;3.97;;;10.50;66.80;;;;;;4967144;28;49145;-85
2022/10/17 02:33:55;;;;;;;6.00;3.50;;;10.50;66.80;;;;;;4984463;28;46647;-83
2022/10/17 02:36:26;;;;;;;5.67;3.40;;;10.40;65.90;;;;;;4986566;28;46352;-83
2022/10/17 02:38:53;;;;;;;8.60;4.20;;;10.40;66.90;;;;;;4985142;28;46621;-84
2022/10/17 02:41:20;;;;;;;5.30;3.50;;;10.40;67.00;;;;;;4967172;28;49223;-84
2022/10/17 02:43:48;;;;;;;8.17;3.73;;;10.40;67.20;;;;;;4981966;28;46460;-80
2022/10/17 02:46:19;;;;;;;7.67;3.73;;;10.40;67.20;;;;;;4985799;28;46488;-85
2022/10/17 02:49:16;;;;;;;7.50;3.10;;;10.40;67.20;;;;;;4965974;28;46479;-83
2022/10/17 02:51:58;;;;;;;7.47;3.83;;;10.30;67.20;;;;;;4968929;28;49140;-85
2022/10/17 02:54:48;;;;;;;6.50;3.60;;;10.30;67.30;;;;;;4968980;28;45764;-85
2022/10/17 02:57:40;;;;;;;6.00;2.77;;;10.30;67.20;;;;;;4966435;28;46640;-85
2022/10/17 03:00:09;;;;;;;7.63;2.87;;;10.30;67.40;;;;;;4960530;28;46491;-86
2022/10/17 03:02:45;;;;;;;4.63;2.83;;;10.20;67.40;;;;;;4966837;28;49366;-85
2022/10/17 03:05:14;;;;;;;3.30;2.47;;;10.10;67.50;;;;;;4985120;28;46303;-84
2022/10/17 03:07:39;;;;;;;5.37;2.90;;;10.00;67.60;;;;;;4985660;28;46429;-85
2022/10/17 03:10:05;;;;;;;3.83;2.30;;;10.00;67.90;;;;;;4985842;28;46856;-85
2022/10/17 03:12:31;;;;;;;9.50;2.40;;;9.90;68.80;;;;;;4968265;28;48489;-85
2022/10/17 03:14:56;;;;;;;5.43;2.43;;;9.80;68.80;;;;;;4967046;28;46447;-84
2022/10/17 03:17:22;;;;;;;4.90;2.47;;;9.80;68.90;;;;;;4965491;28;46971;-85
2022/10/17 03:19:48;;;;;;;7.10;2.87;;;9.80;68.80;;;;;;4967561;28;45914;-85
2022/10/17 03:22:13;;;;;;;8.70;2.70;;;9.80;68.80;;;;;;4985661;28;46434;-85
2022/10/17 03:24:39;;;;;;;3.00;2.03;;;9.70;68.80;;;;;;4985187;28;46462;-85
2022/10/17 03:27:04;;;;;;;6.63;2.43;;;9.60;68.90;;;;;;4982627;28;46416;-85
2022/10/17 03:29:30;;;;;;;4.10;2.63;;;9.60;69.10;;;;;;4967466;28;46451;-84
2022/10/17 03:31:55;;;;;;;5.97;2.53;;;9.50;69.00;;;;;;4984882;28;46293;-85
2022/10/17 03:34:21;;;;;;;13.17;2.53;;;9.50;69.10;;;;;;4966193;28;46299;-82
2022/10/17 03:36:46;;;;;;;5.50;2.80;;;9.50;69.00;;;;;;4983031;28;46456;-83
2022/10/17 03:39:12;;;;;;;4.37;2.50;;;9.50;69.00;;;;;;4991350;28;46434;-84
2022/10/17 03:41:37;;;;;;;9.00;3.50;;;9.50;68.80;;;;;;4990765;28;47415;-85
2022/10/17 03:44:03;;;;;;;8.07;3.20;;;9.50;68.80;;;;;;4975843;28;46296;-84
2022/10/17 03:46:28;;;;;;;5.20;3.00;;;9.60;67.60;;;;;;4993890;28;45767;-84
2022/10/17 03:48:54;;;;;;;8.80;3.67;;;9.60;68.70;;;;;;4976296;28;46263;-82
2022/10/17 03:51:20;;;;;;;6.30;3.33;;;9.60;68.40;;;;;;4974964;28;55180;-84
2022/10/17 03:53:45;;;;;;;12.20;3.67;;;9.60;68.40;;;;;;4988418;28;46441;-84
2022/10/17 03:56:22;;;;;;;7.10;3.30;;;9.60;68.30;;;;;;4976464;28;46423;-84
2022/10/17 03:58:47;;;;;;;5.90;3.27;;;9.60;68.20;;;;;;4983462;28;46405;-84
2022/10/17 04:01:15;;;;;;;9.17;3.33;;;9.70;68.20;;;;;;4986190;28;47069;-85
2022/10/17 04:03:41;;;;;;;6.87;3.57;;;9.60;68.20;;;;;;4963449;28;46724;-83
2022/10/17 04:06:09;;;;;;;8.13;3.73;;;9.60;68.30;;;;;;4961893;28;46750;-84
2022/10/17 04:08:35;;;;;;;6.80;3.90;;;9.60;68.50;;;;;;4961514;28;46430;-83
2022/10/17 04:11:02;;;;;;;5.27;3.17;;;9.50;68.60;;;;;;4967090;28;47833;-84
2022/10/17 04:13:28;;;;;;;5.60;3.30;;;9.50;68.60;;;;;;4966474;28;46422;-83
2022/10/17 04:16:03;;;;;;;8.83;2.70;;;9.40;68.90;;;;;;4966440;28;46795;-83
2022/10/17 04:18:29;;;;;;;4.60;2.83;;;9.40;67.90;;;;;;4970519;28;46320;-83
2022/10/17 04:20:55;;;;;;;4.97;2.80;;;9.40;69.10;;;;;;4968817;28;48661;-82
2022/10/17 04:23:21;;;;;;;4.17;2.87;;;9.40;69.00;;;;;;4966815;28;46412;-82
2022/10/17 04:25:48;;;;;;;5.40;2.87;;;9.40;69.10;;;;;;4982628;28;46328;-83
2022/10/17 04:28:14;;;;;;;5.50;3.00;;;9.30;68.00;;;;;;4969152;28;46391;-82
2022/10/17 04:30:39;;;;;;;7.63;3.47;;;9.40;69.10;;;;;;4964405;28;47957;-83
2022/10/17 04:33:05;;;;;;;7.23;3.17;;;9.30;68.90;;;;;;4966179;28;46362;-83
2022/10/17 04:35:31;;;;;;;6.33;3.60;;;9.30;67.90;;;;;;4988540;28;46361;-84
2022/10/17 04:37:56;;;;;;;4.70;2.70;;;9.20;68.00;;;;;;4990937;28;46351;-84
2022/10/17 04:40:22;;;;;;;8.67;3.20;;;9.20;69.00;;;;;;4991139;28;46389;-84
2022/10/17 04:42:47;;;;;;;5.10;3.23;;;9.20;69.00;;;;;;4973262;28;46403;-83
2022/10/17 04:45:13;;;;;;;8.97;2.70;;;9.20;68.90;;;;;;4989418;28;46470;-84
2022/10/17 04:47:39;;;;;;;6.93;2.47;;;9.20;68.00;;;;;;4993317;28;46374;-85
2022/10/17 04:50:05;;;;;;;3.73;2.90;;;9.10;69.10;;;;;;4989783;28;46371;-84
2022/10/17 04:52:33;;;;;;;5.07;3.33;;;9.10;69.20;;;;;;4974291;28;46592;-84
2022/10/17 04:54:59;;;;;;;5.53;3.07;;;9.10;69.40;;;;;;4973830;28;46571;-84
2022/10/17 04:57:24;;;;;;;13.10;3.33;;;9.00;69.60;;;;;;4973878;28;46323;-84
2022/10/17 04:59:50;;;;;;;3.93;3.13;;;9.00;69.70;;;;;;4990144;28;46367;-84
2022/10/17 05:02:16;;;;;;;7.47;2.90;;;9.00;69.50;;;;;;4991797;28;46432;-84
2022/10/17 05:04:41;;;;;;;7.37;3.03;;;9.00;69.40;;;;;;4972582;28;46363;-83
2022/10/17 05:07:07;;;;;;;5.27;2.83;;;9.00;68.30;;;;;;4991619;28;45830;-83
2022/10/17 05:09:32;;;;;;;5.83;2.87;;;9.00;69.30;;;;;;4990292;28;46597;-85
2022/10/17 05:11:58;;;;;;;5.23;3.60;;;9.00;69.40;;;;;;4990763;28;47400;-84
2022/10/17 05:14:23;;;;;;;4.57;2.90;;;8.90;69.30;;;;;;4972539;28;46575;-85
2022/10/17 05:16:49;;;;;;;8.30;3.00;;;9.00;68.30;;;;;;4973009;28;46420;-84
2022/10/17 05:19:16;;;;;;;5.93;3.20;;;9.00;69.40;;;;;;4976657;28;49217;-85
2022/10/17 05:21:41;;;;;;;5.80;3.33;;;9.00;69.40;;;;;;4973304;28;46861;-83
2022/10/17 05:24:08;;;;;;;8.40;3.60;;;9.10;69.00;;;;;;4976507;28;46423;-83
2022/10/17 05:26:34;;;;;;;9.50;3.10;;;9.10;68.00;;;;;;4990990;28;46410;-83
2022/10/17 05:29:01;;;;;;;5.90;2.97;;;9.10;69.00;;;;;;4972918;28;48312;-84
2022/10/17 05:31:28;;;;;;;13.13;6.50;;;9.10;69.00;;;;;;4992955;28;46569;-84
2022/10/17 05:33:53;;;;;;;6.80;4.70;;;9.10;69.00;;;;;;4991399;28;46394;-83
2022/10/17 05:36:19;;;;;;;9.00;4.70;;;9.20;68.20;;;;;;4976981;28;46431;-85
2022/10/17 05:38:50;;;;;;;6.30;4.40;;;9.20;69.30;;;;;;4978849;28;48445;-83
2022/10/17 05:41:15;;;;;;;11.40;3.93;;;9.20;69.40;;;;;;4972820;28;47246;-84
2022/10/17 05:43:41;;;;;;;8.20;4.37;;;9.20;69.60;;;;;;4969399;28;46158;-82
2022/10/17 05:46:07;;;;;;;12.27;4.30;;;9.20;69.80;;;;;;4988117;28;46522;-83
2022/10/17 05:48:32;;;;;;;8.37;4.63;;;9.20;68.90;;;;;;4986005;28;47307;-85
2022/10/17 05:51:00;;;;;;;10.70;4.17;;;9.20;70.00;;;;;;4983446;28;46398;-82
2022/10/17 05:53:28;;;;;;;10.30;3.70;;;9.30;70.00;;;;;;4980155;28;45872;-83
2022/10/17 05:55:55;;;;;;;8.00;4.13;;;9.40;69.00;;;;;;4967535;28;46402;-82
2022/10/17 05:58:21;;;;;;;10.30;4.10;;;9.40;68.90;;;;;;4969327;28;48475;-85
2022/10/17 06:00:46;;;;;;;6.53;3.17;;;9.50;70.00;;;;;;4971726;28;46455;-83
2022/10/17 06:03:12;;;;;;;10.47;3.43;;;9.50;70.00;;;;;;4983938;28;46441;-82
2022/10/17 06:05:37;;;;;;;9.50;4.03;;;9.50;69.00;;;;;;4984963;28;46441;-82
2022/10/17 06:08:03;;;;;;;7.40;4.13;;;9.50;69.00;;;;;;4986618;28;46553;-83
2022/10/17 06:10:29;;;;;;;5.77;3.47;;;9.50;70.20;;;;;;4985071;28;46325;-83
2022/10/17 06:12:55;;;;;;;8.93;2.90;;;9.50;70.00;;;;;;4986160;28;46395;-80
2022/10/17 06:15:21;;;;;;;6.20;2.67;;;9.50;70.00;;;;;;4968541;28;46509;-82
2022/10/17 06:17:46;;;;;;;5.20;2.50;;;9.50;70.00;;;;;;4983941;28;46441;-84
2022/10/17 06:20:12;;;;;;;5.27;3.20;;;9.40;69.90;;;;;;4983934;28;51908;-84
2022/10/17 06:22:37;;;;;;;9.53;4.40;;;9.50;70.00;;;;;;4967772;28;46334;-84
2022/10/17 06:25:03;;;;;;;6.27;3.90;;;9.50;69.70;;;;;;4966179;28;46402;-85
2022/10/17 06:27:28;;;;;;;12.93;3.97;;;9.70;68.60;;;;;;4987383;28;48738;-84
2022/10/17 06:29:54;;;;;;;9.37;2.73;;;9.70;69.50;;;;;;4985640;28;46571;-83
2022/10/17 06:32:20;;;;;;;4.47;2.77;;;9.80;69.10;;;;;;4990679;28;45801;-84
2022/10/17 06:34:45;;;;;;;6.50;3.03;;;9.90;69.00;;;;;;4992599;28;46256;-83
2022/10/17 06:37:11;;;;;;;8.87;3.10;;;10.00;67.80;;;;;;4996599;28;48068;-81
2022/10/17 06:39:36;;;;;;;6.23;2.53;;;10.10;67.60;;;;;;4992098;28;53916;-82
2022/10/17 06:42:03;;;;;;;5.20;3.30;;;10.10;67.50;;;;;;5011476;28;46086;-82
2022/10/17 06:44:30;;;;;;;4.63;2.67;;;10.30;67.40;;;;;;5002270;28;46532;-84
2022/10/17 06:46:57;;;;;;;9.50;2.97;;;10.30;67.30;;;;;;4969958;28;48098;-85
2022/10/17 06:49:23;;;;;;;5.40;3.00;;;10.40;67.20;;;;;;4989080;28;46640;-85
2022/10/17 06:51:48;;;;;;;4.60;2.80;;;10.60;67.20;;;;;;4972074;28;45889;-85
2022/10/17 06:54:14;;;;;;;6.20;3.00;;;10.70;66.90;;;;;;4970840;28;46564;-85
2022/10/17 06:56:40;;;;;;;5.70;2.83;;;10.90;66.80;;;;;;4972784;28;48494;-83
2022/10/17 06:59:05;;;;;;;11.80;3.07;;;11.10;66.20;;;;;;4972303;28;46482;-84
2022/10/17 07:01:31;;;;;;;7.00;3.40;;;11.30;65.60;;;;;;4986984;28;46351;-83
2022/10/17 07:03:56;;;;;;;5.70;3.43;;;11.40;65.70;;;;;;4974592;28;46513;-86
2022/10/17 07:06:23;;;;;;;4.73;3.37;;;11.70;65.00;;;;;;4990355;28;48143;-84
2022/10/17 07:08:49;;;;;;;5.07;3.00;;;11.70;66.00;;;;;;4988745;28;45949;-85
2022/10/17 07:11:19;;;;;;;7.70;3.20;;;11.90;66.10;;;;;;4974403;28;45838;-84
2022/10/17 07:13:45;;;;;;;5.20;3.53;;;12.10;65.80;;;;;;4987055;28;46455;-83
2022/10/17 07:16:12;;;;;;;9.13;3.47;;;12.30;66.00;;;;;;4973912;28;48699;-84
2022/10/17 07:18:38;;;;;;;5.53;3.80;;;12.40;64.70;;;;;;4971944;28;46310;-83
2022/10/17 07:21:04;;;;;;;9.27;3.13;;;12.60;65.80;;;;;;4974095;28;46781;-83
2022/10/17 07:23:30;;;;;;;5.53;3.33;;;12.70;65.70;;;;;;4986779;28;46603;-83
2022/10/17 07:26:01;;;;;;;6.10;3.60;;;13.00;65.60;;;;;;4970226;28;48454;-85
2022/10/17 07:28:27;;;;;;;10.13;3.30;;;13.10;65.40;;;;;;4988593;28;45810;-85
2022/10/17 07:30:53;;;;;;;5.20;3.40;;;13.30;65.50;;;;;;4963490;28;46396;-83
2022/10/17 07:33:19;;;;;;;14.40;2.73;;;13.40;65.30;;;;;;4981543;28;46697;-85
2022/10/17 07:35:44;;;;;;;4.63;3.43;;;13.60;65.40;;;;;;4983771;28;46479;-84
2022/10/17 07:38:10;;;;;;;10.67;3.30;;;13.80;64.30;;;;;;4985455;28;46229;-83
2022/10/17 07:40:36;;;;;;;7.37;3.13;;;13.90;65.20;;;;;;4988227;28;46503;-82
2022/10/17 07:43:01;;;;;;;4.33;2.90;;;14.10;65.20;;;;;;4985180;28;47372;-82
2022/10/17 07:45:27;;;;;;;4.90;2.70;;;14.20;65.10;;;;;;4968645;28;48209;-83
2022/10/17 07:47:56;;;;;;;11.63;3.60;;;14.40;65.00;;;;;;4967209;28;46454;-82
2022/10/17 07:50:22;;;;;;;11.73;3.50;;;14.60;64.90;;;;;;4983696;28;46360;-84
2022/10/17 07:52:47;;;;;;;7.60;3.27;;;14.70;64.70;;;;;;4981139;28;45857;-81
2022/10/17 07:55:13;;;;;;;8.90;3.30;;;14.80;64.50;;;;;;4988061;28;48696;-83
2022/10/17 07:57:39;;;;;;;6.07;3.30;;;15.00;64.50;;;;;;4982531;28;45937;-82
2022/10/17 08:00:06;;;;;;;7.17;2.77;;;15.10;64.20;;;;;;4969291;28;46393;-81
2022/10/17 08:02:32;;;;;;;10.13;4.10;;;15.30;64.10;;;;;;4966248;28;46501;-83
2022/10/17 08:04:57;;;;;;;5.43;3.20;;;15.40;64.00;;;;;;4986192;28;46736;-85
2022/10/17 08:07:23;;;;;;;6.00;2.70;;;15.90;64.30;;;;;;4969564;28;46731;-83
2022/10/17 08:09:48;;;;;;;4.73;3.03;;;15.60;63.60;;;;;;4970890;28;46763;-85
2022/10/17 08:12:14;;;;;;;10.80;3.50;;;15.70;63.30;;;;;;4988845;28;46446;-84
2022/10/17 08:14:41;;;;;;;6.07;3.60;;;15.90;63.10;;;;;;4970028;28;48472;-83
2022/10/17 08:17:07;;;;;;;5.63;2.77;;;16.00;62.70;;;;;;4987793;28;46420;-82
2022/10/17 08:19:33;;;;;;;7.20;3.10;;;16.10;62.60;;;;;;4987295;28;46280;-83
2022/10/17 08:21:58;;;;;;;8.83;3.50;;;16.20;62.50;;;;;;4966595;28;46474;-85
2022/10/17 08:24:24;;;;;;;6.07;2.80;;;16.40;63.70;;;;;;4983767;28;47741;-84
2022/10/17 08:26:52;;;;;;;7.10;3.23;;;16.50;61.90;;;;;;4988041;28;46171;-82
2022/10/17 08:29:18;;;;;;;6.47;3.30;;;16.70;61.70;;;;;;4989985;28;46108;-84
2022/10/17 08:31:43;;;;;;;7.57;2.87;;;16.80;61.40;;;;;;4989531;28;46365;-84
2022/10/17 08:34:09;;;;;;;7.30;2.93;;;16.90;61.20;;;;;;4986840;28;47542;-83
2022/10/17 08:36:34;;;;;;;6.13;2.87;;;17.10;59.90;;;;;;4968450;28;46503;-83
2022/10/17 08:39:00;;;;;;;7.83;3.10;;;17.10;60.80;;;;;;4986622;28;45900;-84
2022/10/17 08:41:47;;;;;;;4.17;2.50;;;17.30;60.50;;;;;;4967973;28;46529;-83
2022/10/17 08:44:15;;;;;;;4.17;2.50;;;17.40;60.10;;;;;;4986353;28;47859;-83
2022/10/17 08:46:45;;;;;;;6.17;2.90;;;17.50;60.00;;;;;;4985726;28;46132;-84
2022/10/17 08:49:32;;;;;;;5.17;2.77;;;17.60;59.90;;;;;;4984250;28;45928;-83
2022/10/17 08:52:04;;;;;;;8.10;2.60;;;17.70;59.20;;;;;;4984441;28;46382;-83
2022/10/17 08:54:44;;;;;;;5.00;2.83;;;17.80;58.80;;;;;;4964452;28;48010;-83
2022/10/17 08:57:12;;;;;;;4.40;2.33;;;17.90;58.90;;;;;;4965453;28;46818;-82
2022/10/17 08:59:38;;;;;;;10.87;2.70;;;18.00;59.00;;;;;;4966089;28;45799;-83
2022/10/17 09:02:19;;;;;;;4.07;2.60;;;18.10;59.20;;;;;;4966080;28;46417;-83
2022/10/17 09:05:25;;;;;;;4.97;2.53;;;18.10;58.50;;;;;;4960985;28;48308;-84
2022/10/17 09:08:01;;;;;;;4.20;2.37;;;18.10;58.20;;;;;;4962509;28;46422;-83
2022/10/17 09:10:36;;;;;;;5.63;2.33;;;18.10;58.10;;;;;;4968440;28;46484;-84
2022/10/17 09:13:24;;;;;;;12.57;2.77;;;18.30;57.80;;;;;;4986514;28;46436;-83
2022/10/17 09:16:13;;;;;;;5.23;2.70;;;18.40;57.00;;;;;;4965702;28;48247;-83
2022/10/17 09:19:11;;;;;;;5.83;2.40;;;18.60;56.30;;;;;;4969299;28;46450;-82
2022/10/17 09:21:55;;;;;;;5.13;2.13;;;18.70;55.60;;;;;;4967879;28;46409;-83
2022/10/17 09:24:45;;;;;;;4.63;2.43;;;18.80;55.10;;;;;;4986192;28;46279;-83
2022/10/17 09:27:23;;;;;;;5.10;2.53;;;18.80;55.10;;;;;;4966670;28;48231;-83
2022/10/17 09:29:53;;;;;;;7.20;2.93;;;18.80;54.80;;;;;;4986521;28;46328;-83
2022/10/17 09:32:23;;;;;;;5.70;2.47;;;18.80;54.80;;;;;;4984160;28;46621;-84
2022/10/17 09:34:48;;;;;;;3.87;2.53;;;18.90;54.20;;;;;;4991955;28;46510;-83
2022/10/17 09:37:16;;;;;;;5.37;2.37;;;19.10;53.80;;;;;;4968978;28;47969;-83
2022/10/17 09:39:42;;;;;;;8.30;2.30;;;19.10;53.10;;;;;;4986955;28;46547;-83
2022/10/17 09:42:13;;;;;;;3.50;2.17;;;19.20;52.70;;;;;;4973310;28;46495;-83
2022/10/17 09:44:47;;;;;;;4.43;2.73;;;19.20;52.10;;;;;;4961342;28;46404;-83
2022/10/17 09:47:28;;;;;;;10.40;2.80;;;19.40;51.40;;;;;;4988172;28;46624;-83
2022/10/17 09:49:54;;;;;;;10.60;2.43;;;19.30;51.10;;;;;;4967196;28;47163;-83
2022/10/17 09:52:39;;;;;;;4.00;2.17;;;19.40;51.20;;;;;;4968848;28;46386;-83
2022/10/17 09:55:19;;;;;;;14.33;8.80;;;19.40;50.50;;;;;;4968006;28;46535;-83
2022/10/17 09:57:58;;;;;;;5.23;2.90;;;19.70;49.70;;;;;;4982522;28;48734;-83
2022/10/17 10:00:28;;;;;;;4.63;2.50;;;19.80;49.10;;;;;;4983656;28;46465;-82
2022/10/17 10:03:23;;;;;;;4.93;3.17;;;19.90;48.40;;;;;;4987470;28;46376;-83
2022/10/17 10:06:10;;;;;;;6.50;2.70;;;20.00;47.80;;;;;;4986203;28;46499;-83
2022/10/17 10:08:48;;;;;;;6.03;2.87;;;20.00;47.70;;;;;;4966687;28;47975;-84
2022/10/17 10:11:14;;;;;;;28.83;17.80;;;20.20;47.90;;;;;;4987719;28;46425;-83
2022/10/17 10:13:41;;;;;;;6.30;2.73;;;20.30;47.70;;;;;;4970777;28;46482;-83
2022/10/17 10:16:20;;;;;;;4.63;2.27;;;20.50;46.80;;;;;;4984841;28;46859;-83
2022/10/17 10:18:47;;;;;;;3.40;2.17;;;20.70;45.80;;;;;;4964576;28;47995;-83
2022/10/17 10:21:16;;;;;;;5.33;2.20;;;20.80;45.50;;;;;;4963719;28;46735;-85
2022/10/17 10:23:44;;;;;;;6.63;2.03;;;20.90;44.80;;;;;;4987524;28;46621;-84
2022/10/17 10:26:20;;;;;;;12.43;2.67;;;21.00;44.60;;;;;;4971479;28;46722;-85
2022/10/17 10:28:59;;;;;;;3.67;2.27;;;21.00;43.70;;;;;;4966951;28;47983;-84
2022/10/17 10:31:35;;;;;;;6.80;2.50;;;21.10;43.40;;;;;;4963567;28;46394;-83
2022/10/17 10:34:22;;;;;;;4.27;2.30;;;21.10;43.30;;;;;;4983453;28;46425;-84
2022/10/17 10:36:56;;;;;;;3.67;2.13;;;21.20;43.10;;;;;;4968970;28;46477;-84
2022/10/17 10:39:25;;;;;;;53.87;29.33;;;21.30;42.60;;;;;;4988763;28;46437;-82
2022/10/17 10:41:51;;;;;;;15.23;8.70;;;21.40;42.20;;;;;;4983109;28;46363;-85
2022/10/17 10:44:22;;;;;;;3.03;1.93;;;21.50;41.70;;;;;;4983174;28;46635;-84
2022/10/17 10:47:04;;;;;;;4.63;2.30;;;21.60;41.20;;;;;;4968531;28;46336;-84
2022/10/17 10:49:31;;;;;;;5.80;2.03;;;21.70;40.80;;;;;;4964259;28;48548;-85
2022/10/17 10:52:00;;;;;;;4.40;2.73;;;21.80;40.30;;;;;;4985931;28;46750;-85
2022/10/17 10:54:36;;;;;;;4.60;1.90;;;21.90;39.60;;;;;;4982658;28;46423;-85
2022/10/17 10:57:06;;;;;;;5.30;2.40;;;21.80;39.00;;;;;;4983435;28;46504;-86
2022/10/17 10:59:55;;;;;;;3.47;2.03;;;22.00;39.00;;;;;;4967397;28;48287;-86
2022/10/17 11:02:33;;;;;;;8.13;2.30;;;21.70;38.10;;;;;;4982183;28;46365;-84
2022/10/17 11:05:18;;;;;;;3.37;2.00;;;21.70;38.80;;;;;;4985196;28;46363;-86
2022/10/17 11:07:54;;;;;;;4.20;2.00;;;21.50;39.00;;;;;;4968663;28;46310;-87
2022/10/17 11:10:32;;;;;;;6.37;2.33;;;21.60;38.70;;;;;;4970985;28;48431;-86
2022/10/17 11:13:18;;;;;;;3.40;2.00;;;22.00;38.50;;;;;;4983874;28;46397;-84
2022/10/17 11:16:13;;;;;;;5.70;2.20;;;21.90;38.40;;;;;;4969358;28;46554;-84
2022/10/17 11:18:46;;;;;;;4.40;2.13;;;22.10;37.90;;;;;;4985170;28;46498;-84
2022/10/17 11:21:19;;;;;;;3.57;2.07;;;22.30;37.50;;;;;;4986051;28;46656;-83
2022/10/17 11:23:48;;;;;;;10.00;2.27;;;22.30;37.00;;;;;;4981461;28;46417;-83
2022/10/17 11:26:26;;;;;;;8.10;2.10;;;22.40;36.50;;;;;;4984785;28;46398;-84
2022/10/17 11:28:57;;;;;;;2.87;2.00;;;22.50;36.30;;;;;;4983437;28;46529;-84
2022/10/17 11:31:29;;;;;;;4.13;1.73;;;22.60;36.40;;;;;;4965771;28;48346;-84
2022/10/17 11:34:06;;;;;;;4.40;2.30;;;22.70;36.00;;;;;;4983043;28;46510;-85
2022/10/17 11:36:35;;;;;;;3.23;1.97;;;22.60;35.10;;;;;;4965033;28;46080;-85
2022/10/17 11:39:07;;;;;;;4.47;2.30;;;22.60;35.70;;;;;;4985148;28;46382;-83
2022/10/17 11:41:50;;;;;;;5.03;2.10;;;22.70;35.50;;;;;;4968053;28;48026;-86
2022/10/17 11:44:29;;;;;;;5.53;2.23;;;22.80;35.00;;;;;;4967491;28;46840;-84
2022/10/17 11:47:26;;;;;;;4.20;1.90;;;22.70;34.90;;;;;;4981559;28;46697;-81
2022/10/17 11:50:01;;;;;;;4.00;2.20;;;22.50;35.20;;;;;;4965774;28;46411;-86
2022/10/17 11:52:49;;;;;;;3.43;1.87;;;22.50;35.80;;;;;;4966317;28;49322;-85
2022/10/17 11:55:20;;;;;;;5.33;2.13;;;22.50;35.90;;;;;;4964704;28;46505;-85
2022/10/17 11:58:01;;;;;;;3.47;2.27;;;22.50;36.10;;;;;;4982040;28;45811;-85
2022/10/17 12:01:04;;;;;;;7.87;1.80;;;22.40;35.50;;;;;;4984094;28;46669;-84
2022/10/17 12:03:53;;;;;;;5.57;2.00;;;22.50;35.50;;;;;;4983589;28;49569;-85
2022/10/17 12:06:31;;;;;;;4.50;2.20;;;22.50;35.40;;;;;;4983458;28;46655;-85
2022/10/17 12:09:34;;;;;;;3.23;2.00;;;22.40;35.80;;;;;;4981619;28;46446;-85
2022/10/17 12:12:02;;;;;;;3.67;1.97;;;22.50;35.50;;;;;;4984964;28;46725;-83
2022/10/17 12:14:39;;;;;;;5.00;2.43;;;22.70;35.90;;;;;;4985405;28;46449;-84
2022/10/17 12:17:29;;;;;;;7.43;1.90;;;22.50;35.60;;;;;;4967715;28;46383;-84
2022/10/17 12:20:22;;;;;;;3.13;1.70;;;22.60;35.00;;;;;;4982451;28;46798;-86
2022/10/17 12:22:49;;;;;;;3.70;2.20;;;22.50;34.40;;;;;;4980745;28;46597;-86
2022/10/17 12:25:29;;;;;;;3.93;2.00;;;22.50;34.50;;;;;;4982492;28;46352;-84
2022/10/17 12:28:16;;;;;;;2.70;1.70;;;22.60;34.40;;;;;;4964657;28;46674;-84
2022/10/17 12:30:51;;;;;;;3.40;2.00;;;22.70;33.80;;;;;;4965280;28;46480;-85
2022/10/17 12:33:25;;;;;;;4.30;2.43;;;22.60;32.80;;;;;;4964949;28;46536;-85
2022/10/17 12:36:27;;;;;;;4.60;2.17;;;22.60;33.00;;;;;;4981753;28;46461;-84
2022/10/17 12:38:58;;;;;;;4.00;2.20;;;22.60;32.70;;;;;;4963593;28;45982;-84
2022/10/17 12:41:39;;;;;;;4.03;2.00;;;22.80;33.20;;;;;;4964623;28;45885;-85
2022/10/17 12:44:14;;;;;;;4.10;2.13;;;22.90;33.00;;;;;;4981191;28;46448;-84
2022/10/17 12:46:57;;;;;;;3.37;1.90;;;22.70;31.10;;;;;;4960987;28;48142;-84
2022/10/17 12:49:48;;;;;;;3.47;2.00;;;22.60;32.30;;;;;;4982364;28;46283;-84
2022/10/17 12:52:22;;;;;;;3.27;1.97;;;22.40;33.10;;;;;;4984162;28;45920;-84
2022/10/17 12:55:10;;;;;;;8.60;1.90;;;22.30;33.30;;;;;;4982364;28;46398;-85
2022/10/17 12:58:06;;;;;;;8.57;2.37;;;22.30;34.10;;;;;;4979778;28;46644;-83
2022/10/17 13:00:52;;;;;;;3.47;2.07;;;22.30;34.60;;;;;;4981928;28;45954;-81
2022/10/17 13:03:31;;;;;;;5.50;2.57;;;22.20;35.00;;;;;;4984455;28;46657;-83
2022/10/17 13:06:01;;;;;;;3.60;2.10;;;22.20;35.20;;;;;;4965640;28;46491;-82
2022/10/17 13:08:38;;;;;;;5.33;2.53;;;22.20;35.80;;;;;;4967483;28;48287;-80
2022/10/17 13:11:05;;;;;;;4.03;2.27;;;22.10;36.00;;;;;;4964790;28;45865;-83